Naftocement III — SVA7368 — position and weather

sailwx.info

Track history (hours):
 
Tides and Currents Weather Stations Pressure Air Temp Water Temp Dewpoint Dewpoint Depression Visibility Wind Speed Wind Dir Waves Ship Positions

Naftocement III

Last reported at 2018-Feb-19 15:14 UTC. Time now 2018-Feb-20 19:43 UTC.
Position N 37°38' E 024°52'.

Length 77 m; draft 5 m.

Type: Cargo ship. MMSI: 241496000.

Date/timePositionNaut miles runAvg speedWind from/ knotsBaromVisibWave heightAir tempDewpointWater temp
2018-Feb-19 15:14N 37°38' E 024°52'2 9.1
2018-Feb-19 15:00N 37°36' E 024°53'4 8.8
2018-Feb-19 14:30N 37°33' E 024°56'4 8.4
2018-Feb-19 14:01N 37°29' E 024°59'4 7.8
2018-Feb-19 13:27N 37°25' E 025°01'4 8.7
2018-Feb-19 13:00N 37°21' E 025°01'4 8.6
2018-Feb-19 12:30N 37°17' E 025°00'4 8.5
2018-Feb-19 12:00N 37°12' E 025°00'4 8.6
2018-Feb-19 11:31N 37°08' E 024°60'  
2018-Feb-12 16:34N 37°03' E 025°02'1 8.3
2018-Feb-12 16:30N 37°03' E 025°03'4 7.9
2018-Feb-12 16:01N 37°05' E 025°07'1 0.1
2018-Feb-12 05:33N 37°05' E 025°08'0 5.8
2018-Feb-12 05:28N 37°05' E 025°08'3 6.6
2018-Feb-12 05:00N 37°08' E 025°09'4 8.1
2018-Feb-12 04:30N 37°12' E 025°11'4 8.0
2018-Feb-12 04:00N 37°15' E 025°13'4 8.0
2018-Feb-12 03:30N 37°19' E 025°15'4 8.2
2018-Feb-12 03:00N 37°23' E 025°17'4 7.9
2018-Feb-12 02:30N 37°27' E 025°17'1 2.9
2018-Feb-12 02:00N 37°27' E 025°19'0 0.1
2018-Feb-12 01:30N 37°27' E 025°19'0 0.0
2018-Feb-12 01:00N 37°27' E 025°19'0 0.0
2018-Feb-12 00:30N 37°27' E 025°19'0 0.0
2018-Feb-11 23:57N 37°27' E 025°19'0 0.0
2018-Feb-11 23:30N 37°27' E 025°19'0 0.0
2018-Feb-11 23:00N 37°27' E 025°19'0 0.0
2018-Feb-11 22:30N 37°27' E 025°19'0 0.0
2018-Feb-11 22:00N 37°27' E 025°19'0 0.0
2018-Feb-11 21:30N 37°27' E 025°19'0 0.0
2018-Feb-11 21:00N 37°27' E 025°19'0 0.0
2018-Feb-11 20:30N 37°27' E 025°19'0 0.0
2018-Feb-11 20:00N 37°27' E 025°19'0 0.0
2018-Feb-11 19:30N 37°27' E 025°19'0 0.0
2018-Feb-11 19:00N 37°27' E 025°19'0 0.0
2018-Feb-11 18:27N 37°27' E 025°19'0 0.0
2018-Feb-11 18:00N 37°27' E 025°19'0 0.0
2018-Feb-11 17:30N 37°27' E 025°19'0 0.0
2018-Feb-11 17:00N 37°27' E 025°19'0 0.0
2018-Feb-11 16:30N 37°27' E 025°19'0 0.0
2018-Feb-11 15:57N 37°27' E 025°19'0 0.0
2018-Feb-11 15:30N 37°27' E 025°19'0 0.0
2018-Feb-11 15:00N 37°27' E 025°19'0 0.0
2018-Feb-11 14:30N 37°27' E 025°19'0 0.0
2018-Feb-11 14:00N 37°27' E 025°19'0 0.0
2018-Feb-11 13:30N 37°27' E 025°19'0 0.0
2018-Feb-11 13:00N 37°27' E 025°19'0 0.0
2018-Feb-11 12:30N 37°27' E 025°19'0 0.0
2018-Feb-11 12:00N 37°27' E 025°19'0 0.0
2018-Feb-11 11:30N 37°27' E 025°19'0 0.0
2018-Feb-11 11:00N 37°27' E 025°19'0 0.0
2018-Feb-11 10:30N 37°27' E 025°19'0 0.0
2018-Feb-11 10:00N 37°27' E 025°19'0 0.0
2018-Feb-11 09:30N 37°27' E 025°19'0 0.0
2018-Feb-11 09:00N 37°27' E 025°19'0 0.0
2018-Feb-11 08:27N 37°27' E 025°19'0 0.0
2018-Feb-11 07:57N 37°27' E 025°19'0 0.0
2018-Feb-11 07:30N 37°27' E 025°19'0 0.0
2018-Feb-11 07:00N 37°27' E 025°19'0 0.0
2018-Feb-11 06:30N 37°27' E 025°19'0 0.0
2018-Feb-11 05:57N 37°27' E 025°19'0 0.0
2018-Feb-11 05:30N 37°27' E 025°19'0 0.0
2018-Feb-11 05:00N 37°27' E 025°19'0 0.1
2018-Feb-11 04:30N 37°27' E 025°19'0 0.0
2018-Feb-11 04:00N 37°27' E 025°19'0 0.0
2018-Feb-11 03:30N 37°27' E 025°19'0 0.0
2018-Feb-11 03:00N 37°27' E 025°19'0 0.0
2018-Feb-11 02:27N 37°27' E 025°19'0 0.0
2018-Feb-11 02:00N 37°27' E 025°19'0 0.1
2018-Feb-11 01:30N 37°27' E 025°19'0 0.0
2018-Feb-11 01:00N 37°27' E 025°19'0 0.0
2018-Feb-11 00:30N 37°27' E 025°19'0 0.1
2018-Feb-10 23:57N 37°27' E 025°19'0 0.0
2018-Feb-10 23:30N 37°27' E 025°19'0 0.0
2018-Feb-10 23:00N 37°27' E 025°19'0 0.0
2018-Feb-10 22:30N 37°27' E 025°19'0 0.0
2018-Feb-10 21:57N 37°27' E 025°19'0 0.0
2018-Feb-10 21:30N 37°27' E 025°19'0 0.0
2018-Feb-10 20:57N 37°27' E 025°19'0 0.0
2018-Feb-10 20:27N 37°27' E 025°19'0 0.0
2018-Feb-10 20:00N 37°27' E 025°19'0 0.0
2018-Feb-10 19:30N 37°27' E 025°19'0 0.0
2018-Feb-10 19:00N 37°27' E 025°19'0 0.0
2018-Feb-10 18:30N 37°27' E 025°19'0 0.0
2018-Feb-10 18:00N 37°27' E 025°19'0 0.9
2018-Feb-10 17:30N 37°27' E 025°19'1 1.6
2018-Feb-10 17:00N 37°28' E 025°20'0 0.0
2018-Feb-10 16:30N 37°28' E 025°20'0 0.0
2018-Feb-10 16:00N 37°28' E 025°20'0 0.0
2018-Feb-10 15:30N 37°28' E 025°20'0 0.0
2018-Feb-10 15:00N 37°28' E 025°20'0 0.0
2018-Feb-10 14:30N 37°28' E 025°20'0 0.0
2018-Feb-10 14:00N 37°28' E 025°20'0 0.0
2018-Feb-10 13:30N 37°28' E 025°20'0 0.0
2018-Feb-10 13:00N 37°28' E 025°20'0 0.0
2018-Feb-10 12:30N 37°28' E 025°20'0 0.0
2018-Feb-10 12:00N 37°28' E 025°20'0 0.0
2018-Feb-10 11:30N 37°28' E 025°20'0 0.0
2018-Feb-10 11:00N 37°28' E 025°20'0 0.0
2018-Feb-10 10:30N 37°28' E 025°20'0 0.0
2018-Feb-10 10:00N 37°28' E 025°20'0 0.0
2018-Feb-10 09:30N 37°28' E 025°20'0 0.0
2018-Feb-10 09:00N 37°28' E 025°20'0 0.0
2018-Feb-10 08:30N 37°28' E 025°20'0 0.0
2018-Feb-10 07:59N 37°28' E 025°20'0 0.0
2018-Feb-10 07:30N 37°28' E 025°20'0 0.0
2018-Feb-10 07:00N 37°28' E 025°20'0 0.0
2018-Feb-10 06:30N 37°28' E 025°20'0 0.0
2018-Feb-10 06:00N 37°28' E 025°20'0 0.0
2018-Feb-10 05:30N 37°28' E 025°20'0 0.0
2018-Feb-10 04:59N 37°28' E 025°20'0 0.0
2018-Feb-10 04:30N 37°28' E 025°20'0 0.0
2018-Feb-10 04:00N 37°28' E 025°20'0 0.0
2018-Feb-10 03:30N 37°28' E 025°20'0 0.0
2018-Feb-10 03:00N 37°28' E 025°20'0 0.0
2018-Feb-10 02:30N 37°28' E 025°20'0 0.0
2018-Feb-10 01:59N 37°28' E 025°20'0 0.0
2018-Feb-10 01:30N 37°28' E 025°20'0 0.0
2018-Feb-10 01:00N 37°28' E 025°20'0 0.0
2018-Feb-10 00:27N 37°28' E 025°20'0 0.0
2018-Feb-09 23:19N 37°28' E 025°20'0 0.0
2018-Feb-09 23:00N 37°28' E 025°20'0 0.0
2018-Feb-09 22:46N 37°28' E 025°20'  
Track history (hours):
 
Tides and Currents Weather Stations Pressure Air Temp Water Temp Dewpoint Dewpoint Depression Visibility Wind Speed Wind Dir Waves Ship Positions

Naftocement III

Last reported at 2018-Feb-19 15:14 UTC. Time now 2018-Feb-20 19:43 UTC.
Position N 37°38' E 024°52'.

Length 77 m; draft 5 m.

Type: Cargo ship. MMSI: 241496000.

Date/timePositionNaut miles runAvg speedWind from/ knotsBaromVisibWave heightAir tempDewpointWater temp
2018-Feb-19 15:14N 37°38' E 024°52'2 9.1
2018-Feb-19 15:00N 37°36' E 024°53'4 8.8
2018-Feb-19 14:30N 37°33' E 024°56'4 8.4
2018-Feb-19 14:01N 37°29' E 024°59'4 7.8
2018-Feb-19 13:27N 37°25' E 025°01'4 8.7
2018-Feb-19 13:00N 37°21' E 025°01'4 8.6
2018-Feb-19 12:30N 37°17' E 025°00'4 8.5
2018-Feb-19 12:00N 37°12' E 025°00'4 8.6
2018-Feb-19 11:31N 37°08' E 024°60'  
2018-Feb-12 16:34N 37°03' E 025°02'1 8.3
2018-Feb-12 16:30N 37°03' E 025°03'4 7.9
2018-Feb-12 16:01N 37°05' E 025°07'1 0.1
2018-Feb-12 05:33N 37°05' E 025°08'0 5.8
2018-Feb-12 05:28N 37°05' E 025°08'3 6.6
2018-Feb-12 05:00N 37°08' E 025°09'4 8.1
2018-Feb-12 04:30N 37°12' E 025°11'4 8.0
2018-Feb-12 04:00N 37°15' E 025°13'4 8.0
2018-Feb-12 03:30N 37°19' E 025°15'4 8.2
2018-Feb-12 03:00N 37°23' E 025°17'4 7.9
2018-Feb-12 02:30N 37°27' E 025°17'1 2.9
2018-Feb-12 02:00N 37°27' E 025°19'0 0.1
2018-Feb-12 01:30N 37°27' E 025°19'0 0.0
2018-Feb-12 01:00N 37°27' E 025°19'0 0.0
2018-Feb-12 00:30N 37°27' E 025°19'0 0.0
2018-Feb-11 23:57N 37°27' E 025°19'0 0.0
2018-Feb-11 23:30N 37°27' E 025°19'0 0.0
2018-Feb-11 23:00N 37°27' E 025°19'0 0.0
2018-Feb-11 22:30N 37°27' E 025°19'0 0.0
2018-Feb-11 22:00N 37°27' E 025°19'0 0.0
2018-Feb-11 21:30N 37°27' E 025°19'0 0.0
2018-Feb-11 21:00N 37°27' E 025°19'0 0.0
2018-Feb-11 20:30N 37°27' E 025°19'0 0.0
2018-Feb-11 20:00N 37°27' E 025°19'0 0.0
2018-Feb-11 19:30N 37°27' E 025°19'0 0.0
2018-Feb-11 19:00N 37°27' E 025°19'0 0.0
2018-Feb-11 18:27N 37°27' E 025°19'0 0.0
2018-Feb-11 18:00N 37°27' E 025°19'0 0.0
2018-Feb-11 17:30N 37°27' E 025°19'0 0.0
2018-Feb-11 17:00N 37°27' E 025°19'0 0.0
2018-Feb-11 16:30N 37°27' E 025°19'0 0.0
2018-Feb-11 15:57N 37°27' E 025°19'0 0.0
2018-Feb-11 15:30N 37°27' E 025°19'0 0.0
2018-Feb-11 15:00N 37°27' E 025°19'0 0.0
2018-Feb-11 14:30N 37°27' E 025°19'0 0.0
2018-Feb-11 14:00N 37°27' E 025°19'0 0.0
2018-Feb-11 13:30N 37°27' E 025°19'0 0.0
2018-Feb-11 13:00N 37°27' E 025°19'0 0.0
2018-Feb-11 12:30N 37°27' E 025°19'0 0.0
2018-Feb-11 12:00N 37°27' E 025°19'0 0.0
2018-Feb-11 11:30N 37°27' E 025°19'0 0.0
2018-Feb-11 11:00N 37°27' E 025°19'0 0.0
2018-Feb-11 10:30N 37°27' E 025°19'0 0.0
2018-Feb-11 10:00N 37°27' E 025°19'0 0.0
2018-Feb-11 09:30N 37°27' E 025°19'0 0.0
2018-Feb-11 09:00N 37°27' E 025°19'0 0.0
2018-Feb-11 08:27N 37°27' E 025°19'0 0.0
2018-Feb-11 07:57N 37°27' E 025°19'0 0.0
2018-Feb-11 07:30N 37°27' E 025°19'0 0.0
2018-Feb-11 07:00N 37°27' E 025°19'0 0.0
2018-Feb-11 06:30N 37°27' E 025°19'0 0.0
2018-Feb-11 05:57N 37°27' E 025°19'0 0.0
2018-Feb-11 05:30N 37°27' E 025°19'0 0.0
2018-Feb-11 05:00N 37°27' E 025°19'0 0.1
2018-Feb-11 04:30N 37°27' E 025°19'0 0.0
2018-Feb-11 04:00N 37°27' E 025°19'0 0.0
2018-Feb-11 03:30N 37°27' E 025°19'0 0.0
2018-Feb-11 03:00N 37°27' E 025°19'0 0.0
2018-Feb-11 02:27N 37°27' E 025°19'0 0.0
2018-Feb-11 02:00N 37°27' E 025°19'0 0.1
2018-Feb-11 01:30N 37°27' E 025°19'0 0.0
2018-Feb-11 01:00N 37°27' E 025°19'0 0.0
2018-Feb-11 00:30N 37°27' E 025°19'0 0.1
2018-Feb-10 23:57N 37°27' E 025°19'0 0.0
2018-Feb-10 23:30N 37°27' E 025°19'0 0.0
2018-Feb-10 23:00N 37°27' E 025°19'0 0.0
2018-Feb-10 22:30N 37°27' E 025°19'0 0.0
2018-Feb-10 21:57N 37°27' E 025°19'0 0.0
2018-Feb-10 21:30N 37°27' E 025°19'0 0.0
2018-Feb-10 20:57N 37°27' E 025°19'0 0.0
2018-Feb-10 20:27N 37°27' E 025°19'0 0.0
2018-Feb-10 20:00N 37°27' E 025°19'0 0.0
2018-Feb-10 19:30N 37°27' E 025°19'0 0.0
2018-Feb-10 19:00N 37°27' E 025°19'0 0.0
2018-Feb-10 18:30N 37°27' E 025°19'0 0.0
2018-Feb-10 18:00N 37°27' E 025°19'0 0.9
2018-Feb-10 17:30N 37°27' E 025°19'1 1.6
2018-Feb-10 17:00N 37°28' E 025°20'0 0.0
2018-Feb-10 16:30N 37°28' E 025°20'0 0.0
2018-Feb-10 16:00N 37°28' E 025°20'0 0.0
2018-Feb-10 15:30N 37°28' E 025°20'0 0.0
2018-Feb-10 15:00N 37°28' E 025°20'0 0.0
2018-Feb-10 14:30N 37°28' E 025°20'0 0.0
2018-Feb-10 14:00N 37°28' E 025°20'0 0.0
2018-Feb-10 13:30N 37°28' E 025°20'0 0.0
2018-Feb-10 13:00N 37°28' E 025°20'0 0.0
2018-Feb-10 12:30N 37°28' E 025°20'0 0.0
2018-Feb-10 12:00N 37°28' E 025°20'0 0.0
2018-Feb-10 11:30N 37°28' E 025°20'0 0.0
2018-Feb-10 11:00N 37°28' E 025°20'0 0.0
2018-Feb-10 10:30N 37°28' E 025°20'0 0.0
2018-Feb-10 10:00N 37°28' E 025°20'0 0.0
2018-Feb-10 09:30N 37°28' E 025°20'0 0.0
2018-Feb-10 09:00N 37°28' E 025°20'0 0.0
2018-Feb-10 08:30N 37°28' E 025°20'0 0.0
2018-Feb-10 07:59N 37°28' E 025°20'0 0.0
2018-Feb-10 07:30N 37°28' E 025°20'0 0.0
2018-Feb-10 07:00N 37°28' E 025°20'0 0.0
2018-Feb-10 06:30N 37°28' E 025°20'0 0.0
2018-Feb-10 06:00N 37°28' E 025°20'0 0.0
2018-Feb-10 05:30N 37°28' E 025°20'0 0.0
2018-Feb-10 04:59N 37°28' E 025°20'0 0.0
2018-Feb-10 04:30N 37°28' E 025°20'0 0.0
2018-Feb-10 04:00N 37°28' E 025°20'0 0.0
2018-Feb-10 03:30N 37°28' E 025°20'0 0.0
2018-Feb-10 03:00N 37°28' E 025°20'0 0.0
2018-Feb-10 02:30N 37°28' E 025°20'0 0.0
2018-Feb-10 01:59N 37°28' E 025°20'0 0.0
2018-Feb-10 01:30N 37°28' E 025°20'0 0.0
2018-Feb-10 01:00N 37°28' E 025°20'0 0.0
2018-Feb-10 00:27N 37°28' E 025°20'0 0.0
2018-Feb-09 23:19N 37°28' E 025°20'0 0.0
2018-Feb-09 23:00N 37°28' E 025°20'0 0.0
2018-Feb-09 22:46N 37°28' E 025°20'  

Dump ship's entire track history